sensor_id;sensor_type;location;lat;lon;timestamp;P1;durP1;ratioP1;P2;durP2;ratioP2
27025;SDS011;14565;48.626;8.978;2023-03-01T00:00:39;41.60;;;17.10;;
27025;SDS011;14565;48.626;8.978;2023-03-01T00:03:05;33.58;;;17.13;;
27025;SDS011;14565;48.626;8.978;2023-03-01T00:05:31;32.70;;;16.48;;
27025;SDS011;14565;48.626;8.978;2023-03-01T00:07:57;32.83;;;16.67;;
27025;SDS011;14565;48.626;8.978;2023-03-01T00:10:23;32.25;;;15.95;;
27025;SDS011;14565;48.626;8.978;2023-03-01T00:12:48;33.45;;;15.82;;
27025;SDS011;14565;48.626;8.978;2023-03-01T00:15:14;31.60;;;15.20;;
27025;SDS011;14565;48.626;8.978;2023-03-01T00:17:40;33.85;;;16.40;;
27025;SDS011;14565;48.626;8.978;2023-03-01T00:20:06;30.27;;;15.52;;
27025;SDS011;14565;48.626;8.978;2023-03-01T00:22:35;31.65;;;15.93;;
27025;SDS011;14565;48.626;8.978;2023-03-01T00:25:01;33.88;;;16.73;;
27025;SDS011;14565;48.626;8.978;2023-03-01T00:27:28;35.03;;;17.65;;
27025;SDS011;14565;48.626;8.978;2023-03-01T00:29:53;40.85;;;19.02;;
27025;SDS011;14565;48.626;8.978;2023-03-01T00:32:19;36.33;;;17.88;;
27025;SDS011;14565;48.626;8.978;2023-03-01T00:34:45;38.42;;;18.33;;
27025;SDS011;14565;48.626;8.978;2023-03-01T00:37:19;41.40;;;18.50;;
27025;SDS011;14565;48.626;8.978;2023-03-01T00:39:49;36.72;;;18.45;;
27025;SDS011;14565;48.626;8.978;2023-03-01T00:42:15;39.63;;;19.13;;
27025;SDS011;14565;48.626;8.978;2023-03-01T00:44:41;43.80;;;18.63;;
27025;SDS011;14565;48.626;8.978;2023-03-01T00:47:07;42.75;;;19.08;;
27025;SDS011;14565;48.626;8.978;2023-03-01T00:49:33;36.67;;;17.65;;
27025;SDS011;14565;48.626;8.978;2023-03-01T00:52:00;37.05;;;17.45;;
27025;SDS011;14565;48.626;8.978;2023-03-01T00:54:25;40.53;;;17.88;;
27025;SDS011;14565;48.626;8.978;2023-03-01T00:56:51;39.28;;;17.67;;
27025;SDS011;14565;48.626;8.978;2023-03-01T00:59:17;32.60;;;16.65;;
27025;SDS011;14565;48.626;8.978;2023-03-01T01:01:42;35.25;;;16.63;;
27025;SDS011;14565;48.626;8.978;2023-03-01T01:04:09;30.30;;;16.00;;
27025;SDS011;14565;48.626;8.978;2023-03-01T01:06:37;31.40;;;15.73;;
27025;SDS011;14565;48.626;8.978;2023-03-01T01:09:09;30.00;;;15.13;;
27025;SDS011;14565;48.626;8.978;2023-03-01T01:11:42;43.67;;;18.48;;
27025;SDS011;14565;48.626;8.978;2023-03-01T01:14:12;35.75;;;17.48;;
27025;SDS011;14565;48.626;8.978;2023-03-01T01:16:39;37.92;;;17.92;;
27025;SDS011;14565;48.626;8.978;2023-03-01T01:19:05;39.40;;;18.05;;
27025;SDS011;14565;48.626;8.978;2023-03-01T01:21:31;33.13;;;15.90;;
27025;SDS011;14565;48.626;8.978;2023-03-01T01:23:57;37.97;;;17.60;;
27025;SDS011;14565;48.626;8.978;2023-03-01T01:26:28;35.10;;;16.98;;
27025;SDS011;14565;48.626;8.978;2023-03-01T01:28:55;28.83;;;15.32;;
27025;SDS011;14565;48.626;8.978;2023-03-01T01:31:21;30.70;;;16.33;;
27025;SDS011;14565;48.626;8.978;2023-03-01T01:33:48;37.30;;;17.70;;
27025;SDS011;14565;48.626;8.978;2023-03-01T01:36:14;31.63;;;15.77;;
27025;SDS011;14565;48.626;8.978;2023-03-01T01:38:41;30.08;;;16.05;;
27025;SDS011;14565;48.626;8.978;2023-03-01T01:41:10;30.58;;;15.30;;
27025;SDS011;14565;48.626;8.978;2023-03-01T01:43:47;31.77;;;15.25;;
27025;SDS011;14565;48.626;8.978;2023-03-01T01:48:50;34.22;;;15.82;;
27025;SDS011;14565;48.626;8.978;2023-03-01T01:51:21;32.20;;;15.45;;
27025;SDS011;14565;48.626;8.978;2023-03-01T01:53:51;30.20;;;14.32;;
27025;SDS011;14565;48.626;8.978;2023-03-01T01:56:22;28.70;;;14.93;;
27025;SDS011;14565;48.626;8.978;2023-03-01T01:58:50;32.40;;;14.73;;
27025;SDS011;14565;48.626;8.978;2023-03-01T02:01:16;30.73;;;14.95;;
27025;SDS011;14565;48.626;8.978;2023-03-01T02:03:42;30.98;;;15.48;;
27025;SDS011;14565;48.626;8.978;2023-03-01T02:06:12;35.22;;;15.18;;
27025;SDS011;14565;48.626;8.978;2023-03-01T02:08:54;27.65;;;14.07;;
27025;SDS011;14565;48.626;8.978;2023-03-01T02:11:29;34.00;;;16.02;;
27025;SDS011;14565;48.626;8.978;2023-03-01T02:13:56;31.55;;;15.68;;
27025;SDS011;14565;48.626;8.978;2023-03-01T02:16:22;28.73;;;14.88;;
27025;SDS011;14565;48.626;8.978;2023-03-01T02:18:47;30.88;;;16.17;;
27025;SDS011;14565;48.626;8.978;2023-03-01T02:23:47;28.02;;;14.60;;
27025;SDS011;14565;48.626;8.978;2023-03-01T02:28:50;30.85;;;15.05;;
27025;SDS011;14565;48.626;8.978;2023-03-01T02:31:18;30.33;;;13.88;;
27025;SDS011;14565;48.626;8.978;2023-03-01T02:34:04;27.30;;;14.40;;
27025;SDS011;14565;48.626;8.978;2023-03-01T02:36:35;28.15;;;15.32;;
27025;SDS011;14565;48.626;8.978;2023-03-01T02:39:04;31.77;;;15.60;;
27025;SDS011;14565;48.626;8.978;2023-03-01T02:41:32;32.15;;;15.68;;
27025;SDS011;14565;48.626;8.978;2023-03-01T02:44:02;30.52;;;16.63;;
27025;SDS011;14565;48.626;8.978;2023-03-01T02:46:28;30.95;;;14.75;;
27025;SDS011;14565;48.626;8.978;2023-03-01T02:48:58;28.52;;;15.30;;
27025;SDS011;14565;48.626;8.978;2023-03-01T02:56:46;26.02;;;13.57;;
27025;SDS011;14565;48.626;8.978;2023-03-01T02:59:13;27.90;;;14.30;;
27025;SDS011;14565;48.626;8.978;2023-03-01T03:01:42;28.42;;;13.93;;
27025;SDS011;14565;48.626;8.978;2023-03-01T03:04:09;26.25;;;14.85;;
27025;SDS011;14565;48.626;8.978;2023-03-01T03:06:41;28.75;;;15.07;;
27025;SDS011;14565;48.626;8.978;2023-03-01T03:09:09;23.80;;;13.75;;
27025;SDS011;14565;48.626;8.978;2023-03-01T03:11:34;27.83;;;15.00;;
27025;SDS011;14565;48.626;8.978;2023-03-01T03:14:01;28.50;;;13.95;;
27025;SDS011;14565;48.626;8.978;2023-03-01T03:16:28;33.50;;;14.65;;
27025;SDS011;14565;48.626;8.978;2023-03-01T03:18:54;26.30;;;14.05;;
27025;SDS011;14565;48.626;8.978;2023-03-01T03:21:29;29.77;;;14.00;;
27025;SDS011;14565;48.626;8.978;2023-03-01T03:23:56;29.65;;;13.95;;
27025;SDS011;14565;48.626;8.978;2023-03-01T03:26:22;29.80;;;14.45;;
27025;SDS011;14565;48.626;8.978;2023-03-01T03:28:48;27.48;;;15.25;;
27025;SDS011;14565;48.626;8.978;2023-03-01T03:31:13;27.30;;;13.90;;
27025;SDS011;14565;48.626;8.978;2023-03-01T03:33:39;27.80;;;13.88;;
27025;SDS011;14565;48.626;8.978;2023-03-01T03:36:05;26.42;;;14.15;;
27025;SDS011;14565;48.626;8.978;2023-03-01T03:38:31;26.23;;;14.38;;
27025;SDS011;14565;48.626;8.978;2023-03-01T03:41:04;26.92;;;14.20;;
27025;SDS011;14565;48.626;8.978;2023-03-01T03:43:33;25.45;;;13.48;;
27025;SDS011;14565;48.626;8.978;2023-03-01T03:48:30;25.90;;;14.13;;
27025;SDS011;14565;48.626;8.978;2023-03-01T03:50:57;28.90;;;14.90;;
27025;SDS011;14565;48.626;8.978;2023-03-01T03:53:24;22.33;;;13.50;;
27025;SDS011;14565;48.626;8.978;2023-03-01T03:55:51;32.45;;;14.57;;
27025;SDS011;14565;48.626;8.978;2023-03-01T03:58:18;27.25;;;15.23;;
27025;SDS011;14565;48.626;8.978;2023-03-01T04:00:45;25.90;;;13.80;;
27025;SDS011;14565;48.626;8.978;2023-03-01T04:03:13;28.75;;;15.18;;
27025;SDS011;14565;48.626;8.978;2023-03-01T04:05:40;28.40;;;14.07;;
27025;SDS011;14565;48.626;8.978;2023-03-01T04:08:07;30.88;;;15.00;;
27025;SDS011;14565;48.626;8.978;2023-03-01T04:10:37;28.52;;;15.20;;
27025;SDS011;14565;48.626;8.978;2023-03-01T04:13:03;27.58;;;15.15;;
27025;SDS011;14565;48.626;8.978;2023-03-01T04:15:31;26.30;;;14.57;;
27025;SDS011;14565;48.626;8.978;2023-03-01T04:17:58;25.85;;;14.48;;
27025;SDS011;14565;48.626;8.978;2023-03-01T04:20:25;30.77;;;14.77;;
27025;SDS011;14565;48.626;8.978;2023-03-01T04:22:57;38.75;;;19.50;;
27025;SDS011;14565;48.626;8.978;2023-03-01T04:25:24;28.33;;;15.25;;
27025;SDS011;14565;48.626;8.978;2023-03-01T04:27:50;28.08;;;15.07;;
27025;SDS011;14565;48.626;8.978;2023-03-01T04:30:16;27.02;;;15.00;;
27025;SDS011;14565;48.626;8.978;2023-03-01T04:32:44;27.42;;;15.18;;
27025;SDS011;14565;48.626;8.978;2023-03-01T04:35:10;27.05;;;15.00;;
27025;SDS011;14565;48.626;8.978;2023-03-01T04:37:36;28.50;;;15.80;;
27025;SDS011;14565;48.626;8.978;2023-03-01T04:40:02;31.15;;;15.77;;
27025;SDS011;14565;48.626;8.978;2023-03-01T04:42:40;25.23;;;14.60;;
27025;SDS011;14565;48.626;8.978;2023-03-01T04:45:07;25.63;;;14.10;;
27025;SDS011;14565;48.626;8.978;2023-03-01T04:47:38;29.90;;;15.27;;
27025;SDS011;14565;48.626;8.978;2023-03-01T04:50:05;29.58;;;16.20;;
27025;SDS011;14565;48.626;8.978;2023-03-01T04:52:31;26.73;;;14.23;;
27025;SDS011;14565;48.626;8.978;2023-03-01T04:54:57;28.45;;;14.57;;
27025;SDS011;14565;48.626;8.978;2023-03-01T04:57:22;30.25;;;15.77;;
27025;SDS011;14565;48.626;8.978;2023-03-01T04:59:48;30.48;;;14.85;;
27025;SDS011;14565;48.626;8.978;2023-03-01T05:02:14;30.15;;;14.45;;
27025;SDS011;14565;48.626;8.978;2023-03-01T05:04:39;28.73;;;14.75;;
27025;SDS011;14565;48.626;8.978;2023-03-01T05:07:05;28.40;;;12.77;;
27025;SDS011;14565;48.626;8.978;2023-03-01T05:09:31;25.08;;;15.75;;
27025;SDS011;14565;48.626;8.978;2023-03-01T05:11:56;30.75;;;14.95;;
27025;SDS011;14565;48.626;8.978;2023-03-01T05:14:22;28.48;;;14.68;;
27025;SDS011;14565;48.626;8.978;2023-03-01T05:16:47;27.33;;;15.38;;
27025;SDS011;14565;48.626;8.978;2023-03-01T05:19:13;33.03;;;15.90;;
27025;SDS011;14565;48.626;8.978;2023-03-01T05:21:47;27.90;;;14.90;;
27025;SDS011;14565;48.626;8.978;2023-03-01T05:24:29;30.63;;;15.10;;
27025;SDS011;14565;48.626;8.978;2023-03-01T05:29:23;28.83;;;14.55;;
27025;SDS011;14565;48.626;8.978;2023-03-01T05:31:57;25.80;;;15.18;;
27025;SDS011;14565;48.626;8.978;2023-03-01T05:34:28;24.35;;;14.90;;
27025;SDS011;14565;48.626;8.978;2023-03-01T05:36:58;30.08;;;14.68;;
27025;SDS011;14565;48.626;8.978;2023-03-01T05:39:24;27.10;;;15.48;;
27025;SDS011;14565;48.626;8.978;2023-03-01T05:41:55;36.00;;;16.08;;
27025;SDS011;14565;48.626;8.978;2023-03-01T05:44:22;31.83;;;17.00;;
27025;SDS011;14565;48.626;8.978;2023-03-01T05:46:48;28.35;;;16.23;;
27025;SDS011;14565;48.626;8.978;2023-03-01T05:49:14;28.33;;;15.77;;
27025;SDS011;14565;48.626;8.978;2023-03-01T05:51:40;27.77;;;15.40;;
27025;SDS011;14565;48.626;8.978;2023-03-01T05:54:06;30.05;;;16.48;;
27025;SDS011;14565;48.626;8.978;2023-03-01T05:56:33;34.50;;;16.73;;
27025;SDS011;14565;48.626;8.978;2023-03-01T05:58:59;32.58;;;16.98;;
27025;SDS011;14565;48.626;8.978;2023-03-01T06:01:25;34.08;;;17.73;;
27025;SDS011;14565;48.626;8.978;2023-03-01T06:03:51;64.88;;;30.15;;
27025;SDS011;14565;48.626;8.978;2023-03-01T06:06:17;48.83;;;23.25;;
27025;SDS011;14565;48.626;8.978;2023-03-01T06:08:42;36.42;;;19.65;;
27025;SDS011;14565;48.626;8.978;2023-03-01T06:11:08;32.63;;;18.10;;
27025;SDS011;14565;48.626;8.978;2023-03-01T06:13:33;31.77;;;18.00;;
27025;SDS011;14565;48.626;8.978;2023-03-01T06:15:59;30.90;;;16.83;;
27025;SDS011;14565;48.626;8.978;2023-03-01T06:18:25;31.30;;;17.23;;
27025;SDS011;14565;48.626;8.978;2023-03-01T06:20:54;33.42;;;16.63;;
27025;SDS011;14565;48.626;8.978;2023-03-01T06:23:20;29.77;;;16.70;;
27025;SDS011;14565;48.626;8.978;2023-03-01T06:25:46;30.05;;;17.15;;
27025;SDS011;14565;48.626;8.978;2023-03-01T06:28:15;31.45;;;16.67;;
27025;SDS011;14565;48.626;8.978;2023-03-01T06:30:41;28.48;;;16.63;;
27025;SDS011;14565;48.626;8.978;2023-03-01T06:33:06;28.48;;;16.83;;
27025;SDS011;14565;48.626;8.978;2023-03-01T06:35:32;31.77;;;17.17;;
27025;SDS011;14565;48.626;8.978;2023-03-01T06:37:58;35.90;;;18.30;;
27025;SDS011;14565;48.626;8.978;2023-03-01T06:40:25;32.05;;;17.35;;
27025;SDS011;14565;48.626;8.978;2023-03-01T06:42:51;36.50;;;17.73;;
27025;SDS011;14565;48.626;8.978;2023-03-01T06:45:17;29.88;;;15.90;;
27025;SDS011;14565;48.626;8.978;2023-03-01T06:47:44;28.95;;;16.83;;
27025;SDS011;14565;48.626;8.978;2023-03-01T06:50:10;27.90;;;16.48;;
27025;SDS011;14565;48.626;8.978;2023-03-01T06:52:37;32.85;;;17.85;;
27025;SDS011;14565;48.626;8.978;2023-03-01T06:55:02;32.75;;;17.30;;
27025;SDS011;14565;48.626;8.978;2023-03-01T06:57:29;30.73;;;16.25;;
27025;SDS011;14565;48.626;8.978;2023-03-01T06:59:55;30.73;;;17.05;;
27025;SDS011;14565;48.626;8.978;2023-03-01T07:02:21;29.75;;;16.20;;
27025;SDS011;14565;48.626;8.978;2023-03-01T07:04:48;30.27;;;16.33;;
27025;SDS011;14565;48.626;8.978;2023-03-01T07:07:17;31.05;;;17.70;;
27025;SDS011;14565;48.626;8.978;2023-03-01T07:09:44;30.83;;;16.63;;
27025;SDS011;14565;48.626;8.978;2023-03-01T07:12:10;29.63;;;16.70;;
27025;SDS011;14565;48.626;8.978;2023-03-01T07:14:35;33.15;;;16.67;;
27025;SDS011;14565;48.626;8.978;2023-03-01T07:17:01;28.67;;;16.60;;
27025;SDS011;14565;48.626;8.978;2023-03-01T07:19:27;29.58;;;16.08;;
27025;SDS011;14565;48.626;8.978;2023-03-01T07:21:52;31.73;;;16.67;;
27025;SDS011;14565;48.626;8.978;2023-03-01T07:24:18;30.20;;;16.08;;
27025;SDS011;14565;48.626;8.978;2023-03-01T07:26:47;28.30;;;16.00;;
27025;SDS011;14565;48.626;8.978;2023-03-01T07:29:14;30.08;;;15.77;;
27025;SDS011;14565;48.626;8.978;2023-03-01T07:31:39;25.63;;;12.70;;
27025;SDS011;14565;48.626;8.978;2023-03-01T07:34:05;31.02;;;17.58;;
27025;SDS011;14565;48.626;8.978;2023-03-01T07:36:31;30.33;;;16.13;;
27025;SDS011;14565;48.626;8.978;2023-03-01T07:38:56;26.38;;;15.15;;
27025;SDS011;14565;48.626;8.978;2023-03-01T07:41:23;32.63;;;18.33;;
27025;SDS011;14565;48.626;8.978;2023-03-01T07:43:48;29.38;;;15.07;;
27025;SDS011;14565;48.626;8.978;2023-03-01T07:46:14;30.38;;;15.88;;
27025;SDS011;14565;48.626;8.978;2023-03-01T07:48:40;28.95;;;14.77;;
27025;SDS011;14565;48.626;8.978;2023-03-01T07:51:06;29.63;;;16.00;;
27025;SDS011;14565;48.626;8.978;2023-03-01T07:53:31;29.70;;;16.35;;
27025;SDS011;14565;48.626;8.978;2023-03-01T07:56:11;31.60;;;16.08;;
27025;SDS011;14565;48.626;8.978;2023-03-01T07:58:39;31.58;;;16.08;;
27025;SDS011;14565;48.626;8.978;2023-03-01T08:01:07;28.48;;;15.32;;
27025;SDS011;14565;48.626;8.978;2023-03-01T08:03:34;28.50;;;15.65;;
27025;SDS011;14565;48.626;8.978;2023-03-01T08:06:04;33.45;;;15.57;;
27025;SDS011;14565;48.626;8.978;2023-03-01T08:08:32;27.80;;;16.50;;
27025;SDS011;14565;48.626;8.978;2023-03-01T08:10:59;31.45;;;15.45;;
27025;SDS011;14565;48.626;8.978;2023-03-01T08:13:26;28.10;;;16.02;;
27025;SDS011;14565;48.626;8.978;2023-03-01T08:15:54;30.38;;;17.88;;
27025;SDS011;14565;48.626;8.978;2023-03-01T08:18:25;31.65;;;16.40;;
27025;SDS011;14565;48.626;8.978;2023-03-01T08:20:51;29.23;;;14.77;;
27025;SDS011;14565;48.626;8.978;2023-03-01T08:23:16;33.25;;;16.45;;
27025;SDS011;14565;48.626;8.978;2023-03-01T08:25:42;28.92;;;17.35;;
27025;SDS011;14565;48.626;8.978;2023-03-01T08:28:07;26.05;;;15.00;;
27025;SDS011;14565;48.626;8.978;2023-03-01T08:30:33;27.70;;;15.13;;
27025;SDS011;14565;48.626;8.978;2023-03-01T08:33:00;29.08;;;15.82;;
27025;SDS011;14565;48.626;8.978;2023-03-01T08:35:25;27.70;;;15.52;;
27025;SDS011;14565;48.626;8.978;2023-03-01T08:37:51;29.80;;;17.38;;
27025;SDS011;14565;48.626;8.978;2023-03-01T08:40:17;26.75;;;14.32;;
27025;SDS011;14565;48.626;8.978;2023-03-01T08:42:42;21.00;;;11.52;;
27025;SDS011;14565;48.626;8.978;2023-03-01T08:45:08;28.08;;;14.45;;
27025;SDS011;14565;48.626;8.978;2023-03-01T08:47:34;28.50;;;15.38;;
27025;SDS011;14565;48.626;8.978;2023-03-01T08:50:00;32.60;;;17.70;;
27025;SDS011;14565;48.626;8.978;2023-03-01T08:52:26;24.30;;;12.18;;
27025;SDS011;14565;48.626;8.978;2023-03-01T08:54:52;27.77;;;15.07;;
27025;SDS011;14565;48.626;8.978;2023-03-01T08:57:18;26.00;;;12.55;;
27025;SDS011;14565;48.626;8.978;2023-03-01T08:59:44;24.15;;;13.02;;
27025;SDS011;14565;48.626;8.978;2023-03-01T09:02:14;28.25;;;17.92;;
27025;SDS011;14565;48.626;8.978;2023-03-01T09:04:41;29.10;;;15.90;;
27025;SDS011;14565;48.626;8.978;2023-03-01T09:07:07;29.00;;;17.15;;
27025;SDS011;14565;48.626;8.978;2023-03-01T09:09:33;31.30;;;14.77;;
27025;SDS011;14565;48.626;8.978;2023-03-01T09:11:59;29.33;;;16.30;;
27025;SDS011;14565;48.626;8.978;2023-03-01T09:14:25;31.38;;;14.75;;
27025;SDS011;14565;48.626;8.978;2023-03-01T09:16:51;29.92;;;15.50;;
27025;SDS011;14565;48.626;8.978;2023-03-01T09:19:16;28.77;;;15.55;;
27025;SDS011;14565;48.626;8.978;2023-03-01T09:21:42;24.27;;;15.43;;
27025;SDS011;14565;48.626;8.978;2023-03-01T09:24:17;32.55;;;18.15;;
27025;SDS011;14565;48.626;8.978;2023-03-01T09:26:44;30.67;;;15.55;;
27025;SDS011;14565;48.626;8.978;2023-03-01T09:29:13;28.23;;;15.88;;
27025;SDS011;14565;48.626;8.978;2023-03-01T09:31:39;32.08;;;16.05;;
27025;SDS011;14565;48.626;8.978;2023-03-01T09:34:06;28.75;;;16.33;;
27025;SDS011;14565;48.626;8.978;2023-03-01T09:36:32;32.35;;;16.25;;
27025;SDS011;14565;48.626;8.978;2023-03-01T09:38:58;28.77;;;15.80;;
27025;SDS011;14565;48.626;8.978;2023-03-01T09:47:24;26.42;;;15.65;;
27025;SDS011;14565;48.626;8.978;2023-03-01T09:55:20;27.75;;;15.07;;
27025;SDS011;14565;48.626;8.978;2023-03-01T10:01:27;25.27;;;15.68;;
27025;SDS011;14565;48.626;8.978;2023-03-01T10:09:36;28.38;;;12.48;;
27025;SDS011;14565;48.626;8.978;2023-03-01T10:12:04;28.23;;;16.23;;
27025;SDS011;14565;48.626;8.978;2023-03-01T10:20:21;26.98;;;15.02;;
27025;SDS011;14565;48.626;8.978;2023-03-01T10:22:50;27.58;;;16.50;;
27025;SDS011;14565;48.626;8.978;2023-03-01T10:27:53;24.48;;;15.32;;
27025;SDS011;14565;48.626;8.978;2023-03-01T10:30:21;27.88;;;15.00;;
27025;SDS011;14565;48.626;8.978;2023-03-01T10:32:57;28.38;;;17.05;;
27025;SDS011;14565;48.626;8.978;2023-03-01T10:35:25;28.33;;;16.13;;
27025;SDS011;14565;48.626;8.978;2023-03-01T10:38:03;24.40;;;14.27;;
27025;SDS011;14565;48.626;8.978;2023-03-01T10:40:34;24.88;;;14.77;;
27025;SDS011;14565;48.626;8.978;2023-03-01T10:43:05;24.70;;;14.83;;
27025;SDS011;14565;48.626;8.978;2023-03-01T10:45:35;28.83;;;16.98;;
27025;SDS011;14565;48.626;8.978;2023-03-01T10:48:12;28.60;;;15.65;;
27025;SDS011;14565;48.626;8.978;2023-03-01T10:50:50;28.83;;;15.75;;
27025;SDS011;14565;48.626;8.978;2023-03-01T10:53:24;27.80;;;16.15;;
27025;SDS011;14565;48.626;8.978;2023-03-01T10:56:05;26.35;;;15.18;;
27025;SDS011;14565;48.626;8.978;2023-03-01T10:58:36;25.77;;;15.55;;
27025;SDS011;14565;48.626;8.978;2023-03-01T11:01:06;25.20;;;13.80;;
27025;SDS011;14565;48.626;8.978;2023-03-01T11:03:40;26.80;;;14.68;;
27025;SDS011;14565;48.626;8.978;2023-03-01T11:08:39;22.15;;;12.18;;
27025;SDS011;14565;48.626;8.978;2023-03-01T11:13:34;28.23;;;16.55;;
27025;SDS011;14565;48.626;8.978;2023-03-01T11:16:01;22.42;;;13.65;;
27025;SDS011;14565;48.626;8.978;2023-03-01T11:18:30;24.52;;;14.80;;
27025;SDS011;14565;48.626;8.978;2023-03-01T11:20:56;24.23;;;14.45;;
27025;SDS011;14565;48.626;8.978;2023-03-01T11:25:55;26.33;;;13.82;;
27025;SDS011;14565;48.626;8.978;2023-03-01T11:28:25;29.00;;;15.00;;
27025;SDS011;14565;48.626;8.978;2023-03-01T11:34:03;26.33;;;14.70;;
27025;SDS011;14565;48.626;8.978;2023-03-01T11:42:03;28.08;;;14.73;;
27025;SDS011;14565;48.626;8.978;2023-03-01T11:44:52;24.98;;;15.43;;
27025;SDS011;14565;48.626;8.978;2023-03-01T11:47:38;27.25;;;14.75;;
27025;SDS011;14565;48.626;8.978;2023-03-01T12:06:50;26.77;;;14.25;;
27025;SDS011;14565;48.626;8.978;2023-03-01T12:09:22;22.42;;;14.18;;
27025;SDS011;14565;48.626;8.978;2023-03-01T12:25:39;23.58;;;14.05;;
27025;SDS011;14565;48.626;8.978;2023-03-01T12:33:54;24.63;;;15.30;;
27025;SDS011;14565;48.626;8.978;2023-03-01T12:49:57;25.15;;;14.30;;
27025;SDS011;14565;48.626;8.978;2023-03-01T12:55:09;24.58;;;14.40;;
27025;SDS011;14565;48.626;8.978;2023-03-01T12:58:08;23.30;;;14.52;;
27025;SDS011;14565;48.626;8.978;2023-03-01T13:01:13;22.95;;;13.80;;
27025;SDS011;14565;48.626;8.978;2023-03-01T13:11:52;23.88;;;14.07;;
27025;SDS011;14565;48.626;8.978;2023-03-01T13:16:50;24.23;;;16.25;;
27025;SDS011;14565;48.626;8.978;2023-03-01T13:19:23;25.83;;;15.05;;
27025;SDS011;14565;48.626;8.978;2023-03-01T13:21:52;22.13;;;13.55;;
27025;SDS011;14565;48.626;8.978;2023-03-01T13:24:38;23.02;;;13.90;;
27025;SDS011;14565;48.626;8.978;2023-03-01T13:32:29;22.48;;;14.13;;
27025;SDS011;14565;48.626;8.978;2023-03-01T13:37:44;23.23;;;12.65;;
27025;SDS011;14565;48.626;8.978;2023-03-01T13:42:46;23.65;;;14.02;;
27025;SDS011;14565;48.626;8.978;2023-03-01T13:50:47;21.35;;;14.30;;
27025;SDS011;14565;48.626;8.978;2023-03-01T13:53:18;21.55;;;12.80;;
27025;SDS011;14565;48.626;8.978;2023-03-01T13:55:58;16.10;;;9.73;;
27025;SDS011;14565;48.626;8.978;2023-03-01T13:58:28;21.05;;;14.18;;
27025;SDS011;14565;48.626;8.978;2023-03-01T14:01:03;23.27;;;12.98;;
27025;SDS011;14565;48.626;8.978;2023-03-01T14:03:32;21.02;;;13.57;;
27025;SDS011;14565;48.626;8.978;2023-03-01T14:08:32;20.55;;;13.18;;
27025;SDS011;14565;48.626;8.978;2023-03-01T14:21:41;20.48;;;14.02;;
27025;SDS011;14565;48.626;8.978;2023-03-01T14:24:15;21.10;;;12.85;;
27025;SDS011;14565;48.626;8.978;2023-03-01T14:26:47;20.90;;;11.48;;
27025;SDS011;14565;48.626;8.978;2023-03-01T14:29:24;20.17;;;12.70;;
27025;SDS011;14565;48.626;8.978;2023-03-01T14:31:52;25.45;;;12.77;;
27025;SDS011;14565;48.626;8.978;2023-03-01T14:34:21;16.67;;;10.63;;
27025;SDS011;14565;48.626;8.978;2023-03-01T14:36:48;20.38;;;11.77;;
27025;SDS011;14565;48.626;8.978;2023-03-01T14:39:18;22.17;;;12.27;;
27025;SDS011;14565;48.626;8.978;2023-03-01T14:41:47;17.83;;;11.30;;
27025;SDS011;14565;48.626;8.978;2023-03-01T14:44:19;21.60;;;13.00;;
27025;SDS011;14565;48.626;8.978;2023-03-01T14:46:51;22.45;;;12.85;;
27025;SDS011;14565;48.626;8.978;2023-03-01T14:49:21;20.98;;;12.70;;
27025;SDS011;14565;48.626;8.978;2023-03-01T14:54:27;24.02;;;13.95;;
27025;SDS011;14565;48.626;8.978;2023-03-01T14:57:23;23.20;;;12.68;;
27025;SDS011;14565;48.626;8.978;2023-03-01T14:59:54;23.35;;;15.32;;
27025;SDS011;14565;48.626;8.978;2023-03-01T15:02:24;26.88;;;15.20;;
27025;SDS011;14565;48.626;8.978;2023-03-01T15:04:52;24.17;;;14.90;;
27025;SDS011;14565;48.626;8.978;2023-03-01T15:07:26;24.92;;;13.82;;
27025;SDS011;14565;48.626;8.978;2023-03-01T15:09:56;27.50;;;15.25;;
27025;SDS011;14565;48.626;8.978;2023-03-01T15:14:54;24.42;;;15.13;;
27025;SDS011;14565;48.626;8.978;2023-03-01T15:17:31;24.42;;;15.55;;
27025;SDS011;14565;48.626;8.978;2023-03-01T15:19:59;31.00;;;14.43;;
27025;SDS011;14565;48.626;8.978;2023-03-01T15:22:27;23.80;;;15.05;;
27025;SDS011;14565;48.626;8.978;2023-03-01T15:24:53;24.33;;;14.65;;
27025;SDS011;14565;48.626;8.978;2023-03-01T15:27:20;24.58;;;15.98;;
27025;SDS011;14565;48.626;8.978;2023-03-01T15:29:53;29.88;;;16.77;;
27025;SDS011;14565;48.626;8.978;2023-03-01T15:32:29;26.75;;;14.98;;
27025;SDS011;14565;48.626;8.978;2023-03-01T15:34:56;26.80;;;16.25;;
27025;SDS011;14565;48.626;8.978;2023-03-01T15:40:17;24.40;;;15.98;;
27025;SDS011;14565;48.626;8.978;2023-03-01T15:42:49;26.27;;;16.40;;
27025;SDS011;14565;48.626;8.978;2023-03-01T15:47:46;30.67;;;16.10;;
27025;SDS011;14565;48.626;8.978;2023-03-01T15:50:27;25.67;;;15.25;;
27025;SDS011;14565;48.626;8.978;2023-03-01T15:52:55;23.02;;;16.08;;
27025;SDS011;14565;48.626;8.978;2023-03-01T15:55:27;26.00;;;15.00;;
27025;SDS011;14565;48.626;8.978;2023-03-01T16:00:40;27.15;;;16.05;;
27025;SDS011;14565;48.626;8.978;2023-03-01T16:03:07;27.17;;;16.02;;
27025;SDS011;14565;48.626;8.978;2023-03-01T16:05:36;25.85;;;15.95;;
27025;SDS011;14565;48.626;8.978;2023-03-01T16:08:03;28.80;;;15.98;;
27025;SDS011;14565;48.626;8.978;2023-03-01T16:10:30;27.00;;;14.75;;
27025;SDS011;14565;48.626;8.978;2023-03-01T16:12:57;26.27;;;15.43;;
27025;SDS011;14565;48.626;8.978;2023-03-01T16:15:27;31.75;;;17.05;;
27025;SDS011;14565;48.626;8.978;2023-03-01T16:17:55;29.35;;;16.92;;
27025;SDS011;14565;48.626;8.978;2023-03-01T16:20:23;30.52;;;16.73;;
27025;SDS011;14565;48.626;8.978;2023-03-01T16:22:49;25.25;;;16.17;;
27025;SDS011;14565;48.626;8.978;2023-03-01T16:25:16;28.85;;;15.60;;
27025;SDS011;14565;48.626;8.978;2023-03-01T16:27:44;29.80;;;16.05;;
27025;SDS011;14565;48.626;8.978;2023-03-01T16:30:12;24.38;;;16.08;;
27025;SDS011;14565;48.626;8.978;2023-03-01T16:32:40;25.85;;;15.05;;
27025;SDS011;14565;48.626;8.978;2023-03-01T16:35:07;28.58;;;16.33;;
27025;SDS011;14565;48.626;8.978;2023-03-01T16:37:34;26.60;;;15.97;;
27025;SDS011;14565;48.626;8.978;2023-03-01T16:40:00;29.25;;;15.70;;
27025;SDS011;14565;48.626;8.978;2023-03-01T16:42:29;30.02;;;16.88;;
27025;SDS011;14565;48.626;8.978;2023-03-01T16:45:01;27.60;;;16.25;;
27025;SDS011;14565;48.626;8.978;2023-03-01T16:47:27;28.92;;;16.35;;
27025;SDS011;14565;48.626;8.978;2023-03-01T16:49:53;34.67;;;15.75;;
27025;SDS011;14565;48.626;8.978;2023-03-01T16:52:19;25.50;;;15.40;;
27025;SDS011;14565;48.626;8.978;2023-03-01T16:54:45;26.80;;;15.27;;
27025;SDS011;14565;48.626;8.978;2023-03-01T16:57:11;27.45;;;16.13;;
27025;SDS011;14565;48.626;8.978;2023-03-01T16:59:37;31.27;;;15.70;;
27025;SDS011;14565;48.626;8.978;2023-03-01T17:02:03;34.95;;;16.20;;
27025;SDS011;14565;48.626;8.978;2023-03-01T17:06:56;25.42;;;14.18;;
27025;SDS011;14565;48.626;8.978;2023-03-01T17:09:22;29.65;;;15.07;;
27025;SDS011;14565;48.626;8.978;2023-03-01T17:11:48;28.75;;;15.20;;
27025;SDS011;14565;48.626;8.978;2023-03-01T17:14:14;29.35;;;15.70;;
27025;SDS011;14565;48.626;8.978;2023-03-01T17:16:43;28.48;;;15.10;;
27025;SDS011;14565;48.626;8.978;2023-03-01T17:19:10;27.15;;;16.02;;